Time;durP1;ratioP1;P1;durP2;ratioP2;P2;SDS_P1;SDS_P2;PMS_P1;PMS_P2;Temp;Humidity;BMP_temperature;BMP_pressure;BME280_temperature;BME280_humidity;BME280_pressure;Samples;Min_cycle;Max_cycle;Signal;HPM_P1;HPM_P2
2021/01/04 00:02:43;;;;;;;;;;;;;;;5.58;74.65;97829.11;1758212;81;26190;-90
2021/01/04 00:05:29;;;;;;;;;;;;;;;5.45;74.61;97832.42;1758132;80;24556;-89
2021/01/04 00:08:17;;;;;;;;;;;;;;;5.34;74.56;97821.03;1762455;81;20272;-89
2021/01/04 00:11:04;;;;;;;;;;;;;;;5.25;74.51;97823.68;1758828;80;39419;-88
2021/01/04 00:16:22;;;;;;;;;;;;;;;5.10;74.47;97821.98;1763640;80;25943;-89
2021/01/04 00:19:11;;;;;;;;;;;;;;;5.00;74.48;97819.55;1753905;80;24650;-89
2021/01/04 00:21:57;;;;;;;;;;;;;;;4.92;74.45;97816.08;1756969;80;20396;-89
2021/01/04 00:24:44;;;;;;;;;;;;;;;4.86;74.46;97811.24;1753859;80;25102;-90
2021/01/04 00:27:30;;;;;;;;;;;;;;;4.83;74.43;97812.73;1762104;81;22181;-89
2021/01/04 00:30:16;;;;;;;;;;;;;;;4.87;74.42;97812.08;1760431;80;26113;-89
2021/01/04 00:33:02;;;;;;;;;;;;;;;4.93;74.42;97813.87;1799546;78;24301;-89
2021/01/04 00:35:49;;;;;;;;;;;;;;;5.10;74.44;97811.61;1762814;80;20347;-89
2021/01/04 00:38:35;;;;;;;;;;;;;;;5.34;74.48;97814.55;1763681;79;25195;-89
2021/01/04 00:41:21;;;;;;;;;;;;;;;5.53;74.52;97815.57;1764834;80;22366;-89
2021/01/04 00:44:07;;;;;;;;;;;;;;;5.66;74.56;97816.52;1754893;81;26114;-89
2021/01/04 00:46:53;;;;;;;;;;;;;;;5.62;74.63;97818.45;1742449;80;25186;-89
2021/01/04 00:49:42;;;;;;;;;;;;;;;5.73;74.63;97818.64;1748628;81;20568;-89
2021/01/04 00:52:31;;;;;;;;;;;;;;;5.87;74.64;97815.26;1766058;80;25136;-89
2021/01/04 00:55:04;;;;;;;;;;;;;;;6.07;74.63;97818.76;1767196;80;22887;-89
2021/01/04 00:57:55;;;;;;;;;;;;;;;6.19;74.64;97815.41;1748326;81;26956;-90
2021/01/04 01:00:41;;;;;;;;;;;;;;;6.14;74.69;97812.27;1748615;81;24671;-91
2021/01/04 01:03:27;;;;;;;;;;;;;;;5.93;74.69;97812.29;1765363;80;20288;-90
2021/01/04 01:06:13;;;;;;;;;;;;;;;5.70;74.66;97818.00;1764421;80;26139;-90
2021/01/04 01:09:01;;;;;;;;;;;;;;;5.54;74.60;97827.17;1737313;81;22178;-90
2021/01/04 01:11:47;;;;;;;;;;;;;;;5.58;74.56;97817.42;1752072;81;26977;-89
2021/01/04 01:14:33;;;;;;;;;;;;;;;5.64;74.52;97823.09;1767429;80;24654;-89
2021/01/04 01:17:19;;;;;;;;;;;;;;;5.59;74.53;97822.53;1765316;80;20361;-90
2021/01/04 01:20:05;;;;;;;;;;;;;;;5.46;74.51;97818.53;1761402;80;26216;-89
2021/01/04 01:22:52;;;;;;;;;;;;;;;5.30;74.53;97817.76;1761002;80;22304;-90
2021/01/04 01:25:39;;;;;;;;;;;;;;;5.34;74.52;97823.16;1719738;82;26087;-89
2021/01/04 01:28:28;;;;;;;;;;;;;;;5.35;74.53;97822.67;1722492;82;25572;-89
2021/01/04 01:31:15;;;;;;;;;;;;;;;5.36;74.56;97825.19;1743580;82;20274;-88
2021/01/04 01:34:01;;;;;;;;;;;;;;;5.08;74.61;97822.98;1743306;81;25084;-89
2021/01/04 01:36:48;;;;;;;;;;;;;;;4.84;74.60;97820.88;1743008;81;22990;-89
2021/01/04 01:39:34;;;;;;;;;;;;;;;4.78;74.57;97819.09;1753123;80;26371;-90
2021/01/04 01:42:20;;;;;;;;;;;;;;;4.96;74.57;97829.23;1761996;80;24690;-90
2021/01/04 01:45:06;;;;;;;;;;;;;;;5.12;74.61;97828.38;1767482;80;20264;-90
2021/01/04 01:47:52;;;;;;;;;;;;;;;5.10;74.65;97827.17;1749278;80;25183;-90
2021/01/04 01:50:38;;;;;;;;;;;;;;;5.06;74.70;97820.50;1744879;81;23052;-90
2021/01/04 01:53:25;;;;;;;;;;;;;;;5.18;74.74;97829.33;1734909;82;26221;-90
2021/01/04 01:56:10;;;;;;;;;;;;;;;5.26;74.79;97834.44;1743821;82;24634;-90
2021/01/04 01:58:56;;;;;;;;;;;;;;;5.30;74.81;97830.73;1741171;82;20260;-89
2021/01/04 02:01:44;;;;;;;;;;;;;;;5.41;74.85;97835.29;1757751;81;25097;-88
2021/01/04 02:04:31;;;;;;;;;;;;;;;5.27;74.90;97828.33;1758406;81;23050;-90
2021/01/04 02:07:18;;;;;;;;;;;;;;;5.13;74.94;97825.68;1744076;81;26127;-90
2021/01/04 02:10:04;;;;;;;;;;;;;;;5.13;74.96;97825.68;1760132;81;24384;-90
2021/01/04 02:12:55;;;;;;;;;;;;;;;5.25;75.00;97820.25;1746989;82;20435;-90
2021/01/04 02:15:42;;;;;;;;;;;;;;;5.12;75.04;97818.02;1756075;81;25287;-90
2021/01/04 02:18:28;;;;;;;;;;;;;;;4.98;75.08;97814.44;1759125;81;22124;-89
2021/01/04 02:21:14;;;;;;;;;;;;;;;4.90;75.11;97812.77;1760293;81;26278;-89
2021/01/04 02:24:00;;;;;;;;;;;;;;;4.81;75.12;97815.86;1732956;81;24988;-89
2021/01/04 02:26:47;;;;;;;;;;;;;;;4.82;75.16;97822.72;1762660;81;20331;-89
2021/01/04 02:29:33;;;;;;;;;;;;;;;4.98;75.17;97820.92;1752671;80;25150;-89
2021/01/04 02:32:18;;;;;;;;;;;;;;;5.14;75.23;97825.22;1760818;80;22077;-89
2021/01/04 02:35:04;;;;;;;;;;;;;;;5.27;75.27;97820.55;1767369;80;26123;-90
2021/01/04 02:37:51;;;;;;;;;;;;;;;5.36;75.36;97826.48;1749908;81;24661;-89
2021/01/04 02:40:37;;;;;;;;;;;;;;;5.41;75.40;97825.75;1763225;80;20269;-89
2021/01/04 02:43:23;;;;;;;;;;;;;;;5.28;75.47;97817.49;1753267;81;25083;-91
2021/01/04 02:46:13;;;;;;;;;;;;;;;5.13;75.52;97825.68;1758270;81;22145;-89
2021/01/04 02:49:00;;;;;;;;;;;;;;;5.02;75.53;97825.45;1750820;81;26893;-89
2021/01/04 02:51:47;;;;;;;;;;;;;;;5.03;75.53;97824.55;1761082;80;25627;-89
2021/01/04 02:54:38;;;;;;;;;;;;;;;5.11;75.53;97824.11;1764861;80;20213;-90
2021/01/04 02:57:28;;;;;;;;;;;;;;;5.22;75.58;97821.28;1764429;80;26049;-89
2021/01/04 03:00:14;;;;;;;;;;;;;;;5.29;75.63;97819.97;1762664;80;22059;-90
2021/01/04 03:03:02;;;;;;;;;;;;;;;5.25;75.70;97813.77;1774243;79;26279;-88
2021/01/04 03:05:49;;;;;;;;;;;;;;;5.16;75.73;97816.44;1766250;81;24746;-89
2021/01/04 03:08:37;;;;;;;;;;;;;;;5.01;75.74;97812.14;1761678;80;20546;-90
2021/01/04 03:11:24;;;;;;;;;;;;;;;4.96;75.76;97816.27;1762389;80;25261;-89
2021/01/04 03:14:11;;;;;;;;;;;;;;;5.14;75.74;97816.98;1764583;81;22324;-90
2021/01/04 03:16:57;;;;;;;;;;;;;;;5.24;75.76;97815.98;1762304;80;26125;-89
2021/01/04 03:19:47;;;;;;;;;;;;;;;5.20;75.81;97816.62;1762700;80;24737;-89
2021/01/04 03:22:33;;;;;;;;;;;;;;;5.03;75.86;97816.30;1760559;80;20262;-89
2021/01/04 03:25:09;;;;;;;;;;;;;;;4.86;75.87;97819.02;1762946;80;25985;-89
2021/01/04 03:27:55;;;;;;;;;;;;;;;4.68;75.87;97822.67;1770239;80;22190;-89
2021/01/04 03:30:41;;;;;;;;;;;;;;;4.59;75.85;97826.59;1778520;80;27112;-89
2021/01/04 03:33:27;;;;;;;;;;;;;;;4.55;75.85;97821.20;1765453;80;24617;-89
2021/01/04 03:36:13;;;;;;;;;;;;;;;4.53;75.85;97826.09;1767540;80;20287;-90
2021/01/04 03:39:03;;;;;;;;;;;;;;;4.53;75.88;97820.45;1769438;80;25386;-89
2021/01/04 03:41:50;;;;;;;;;;;;;;;4.52;75.93;97818.80;1768929;80;22234;-89
2021/01/04 03:44:36;;;;;;;;;;;;;;;4.53;75.96;97810.54;1765742;80;26213;-89
2021/01/04 03:47:25;;;;;;;;;;;;;;;4.61;75.99;97819.58;1770070;80;24714;-89
2021/01/04 03:50:14;;;;;;;;;;;;;;;4.81;76.03;97816.31;1774914;80;20272;-89
2021/01/04 03:52:59;;;;;;;;;;;;;;;4.92;76.08;97816.54;1747703;81;25281;-89
2021/01/04 03:55:47;;;;;;;;;;;;;;;5.02;76.15;97816.38;1752015;81;23257;-90
2021/01/04 03:58:33;;;;;;;;;;;;;;;4.97;76.19;97821.00;1707521;83;26125;-89
2021/01/04 04:01:19;;;;;;;;;;;;;;;5.05;76.23;97823.55;1709819;83;25743;-89
2021/01/04 04:04:05;;;;;;;;;;;;;;;5.01;76.27;97831.13;1706695;83;20290;-89
2021/01/04 04:06:52;;;;;;;;;;;;;;;5.01;76.29;97827.25;1688944;84;25358;-89
2021/01/04 04:09:38;;;;;;;;;;;;;;;5.09;76.32;97832.44;1704179;83;22081;-89
2021/01/04 04:12:24;;;;;;;;;;;;;;;5.01;76.36;97828.55;1688216;84;26086;-89
2021/01/04 04:15:10;;;;;;;;;;;;;;;4.96;76.38;97833.62;1705206;83;24776;-89
2021/01/04 04:17:56;;;;;;;;;;;;;;;4.83;76.40;97837.81;1706100;83;20417;-89
2021/01/04 04:20:30;;;;;;;;;;;;;;;4.74;76.43;97835.28;1695480;84;25336;-89
2021/01/04 04:23:16;;;;;;;;;;;;;;;4.86;76.41;97835.03;1694652;84;22220;-90
2021/01/04 04:26:02;;;;;;;;;;;;;;;4.98;76.41;97834.34;1694216;84;26122;-89
2021/01/04 04:28:49;;;;;;;;;;;;;;;5.09;76.42;97834.56;1708978;83;24696;-89
2021/01/04 04:31:34;;;;;;;;;;;;;;;5.15;76.47;97839.41;1708942;83;20277;-89
2021/01/04 04:34:21;;;;;;;;;;;;;;;5.21;76.51;97832.57;1703971;83;25135;-89
2021/01/04 04:37:06;;;;;;;;;;;;;;;5.12;76.56;97834.41;1707710;83;22152;-89
2021/01/04 04:39:53;;;;;;;;;;;;;;;4.97;76.63;97832.21;1709917;83;27034;-89
2021/01/04 04:42:38;;;;;;;;;;;;;;;4.76;76.65;97829.54;1708952;83;24805;-89
2021/01/04 04:45:24;;;;;;;;;;;;;;;4.59;76.67;97840.00;1704350;83;20380;-89
2021/01/04 04:48:14;;;;;;;;;;;;;;;4.52;76.67;97843.42;1685760;83;25360;-89
2021/01/04 04:51:00;;;;;;;;;;;;;;;4.61;76.67;97840.77;1692076;84;22957;-89
2021/01/04 04:53:48;;;;;;;;;;;;;;;4.64;76.68;97837.53;1741332;81;25948;-89
2021/01/04 04:56:33;;;;;;;;;;;;;;;4.65;76.71;97846.14;1757143;81;24609;-88
2021/01/04 04:59:23;;;;;;;;;;;;;;;4.72;76.78;97847.94;1747871;81;20474;-89
2021/01/04 05:02:09;;;;;;;;;;;;;;;4.72;76.83;97841.47;1777657;80;25109;-89
2021/01/04 05:04:58;;;;;;;;;;;;;;;4.54;76.92;97846.74;1774775;80;23156;-90
2021/01/04 05:07:45;;;;;;;;;;;;;;;4.28;76.96;97843.44;1756465;81;26246;-90
2021/01/04 05:10:19;;;;;;;;;;;;;;;4.03;76.97;97834.03;1773843;80;25439;-89
2021/01/04 05:13:07;;;;;;;;;;;;;;;3.86;76.96;97841.85;1744878;82;20692;-88
2021/01/04 05:15:52;;;;;;;;;;;;;;;3.83;76.95;97847.17;1774581;80;25095;-89
2021/01/04 05:18:42;;;;;;;;;;;;;;;3.86;76.97;97841.39;1776660;80;22926;-89
2021/01/04 05:21:28;;;;;;;;;;;;;;;3.86;77.03;97832.34;1754146;81;26126;-89
2021/01/04 05:24:14;;;;;;;;;;;;;;;3.95;77.08;97840.06;1775345;80;24680;-89
2021/01/04 05:27:01;;;;;;;;;;;;;;;4.07;77.14;97836.83;1776100;80;20262;-89
2021/01/04 05:29:35;;;;;;;;;;;;;;;4.19;77.21;97831.84;1775300;80;25100;-90
2021/01/04 05:32:21;;;;;;;;;;;;;;;4.37;77.31;97840.80;1774615;80;22095;-89
2021/01/04 05:35:06;;;;;;;;;;;;;;;4.38;77.37;97841.19;1778246;80;26106;-89
2021/01/04 05:37:56;;;;;;;;;;;;;;;4.35;77.40;97840.91;1776946;80;24819;-89
2021/01/04 05:40:42;;;;;;;;;;;;;;;4.38;77.46;97837.30;1775462;80;20275;-90
2021/01/04 05:43:29;;;;;;;;;;;;;;;4.44;77.47;97827.44;1744966;82;25978;-90
2021/01/04 05:46:15;;;;;;;;;;;;;;;4.58;77.54;97820.22;1743973;81;22159;-90
2021/01/04 05:49:04;;;;;;;;;;;;;;;4.64;77.56;97821.98;1742229;82;26249;-89
2021/01/04 05:51:51;;;;;;;;;;;;;;;4.64;77.61;97819.84;1765361;78;24733;-89
2021/01/04 05:54:42;;;;;;;;;;;;;;;4.73;77.66;97824.54;1746027;81;20543;-88
2021/01/04 05:57:28;;;;;;;;;;;;;;;4.79;77.68;97821.61;1749030;81;25175;-89
2021/01/04 06:00:16;;;;;;;;;;;;;;;4.77;77.71;97827.33;1757551;80;22137;-89
2021/01/04 06:03:02;;;;;;;;;;;;;;;4.82;77.75;97818.83;1757385;80;26368;-89
2021/01/04 06:05:52;;;;;;;;;;;;;;;4.75;77.78;97829.61;1742554;80;24365;-89
2021/01/04 06:08:39;;;;;;;;;;;;;;;4.53;77.80;97832.11;1775911;80;20215;-89
2021/01/04 06:11:25;;;;;;;;;;;;;;;4.42;77.83;97831.86;1775461;80;25085;-89
2021/01/04 06:14:11;;;;;;;;;;;;;;;4.48;77.80;97822.92;1726625;82;23039;-89
2021/01/04 06:16:57;;;;;;;;;;;;;;;4.61;77.80;97826.05;1741151;81;26087;-89
2021/01/04 06:19:43;;;;;;;;;;;;;;;4.60;77.82;97830.86;1738896;82;24576;-89
2021/01/04 06:22:23;;;;;;;;;;;;;;;4.45;77.86;97826.98;1741289;81;20523;-89
2021/01/04 06:25:08;;;;;;;;;;;;;;;4.36;77.89;97832.68;1737772;81;25122;-89
2021/01/04 06:27:55;;;;;;;;;;;;;;;4.44;77.87;97835.22;1765762;80;22142;-88
2021/01/04 06:30:42;;;;;;;;;;;;;;;4.66;77.87;97837.45;1750626;81;27329;-89
2021/01/04 06:33:29;;;;;;;;;;;;;;;4.74;77.87;97842.23;1734928;82;24535;-88
2021/01/04 06:36:15;;;;;;;;;;;;;;;4.55;77.94;97854.89;1739438;80;20591;-89
2021/01/04 06:39:02;;;;;;;;;;;;;;;4.38;77.97;97858.02;1730177;82;25108;-88
2021/01/04 06:41:49;;;;;;;;;;;;;;;4.33;77.97;97860.86;1751404;81;22162;-88
2021/01/04 06:44:35;;;;;;;;;;;;;;;4.47;77.95;97861.42;1748899;81;26042;-88
2021/01/04 06:47:21;;;;;;;;;;;;;;;4.58;77.95;97868.96;1759622;80;24845;-88
2021/01/04 06:50:07;;;;;;;;;;;;;;;4.59;77.95;97871.09;1763386;80;20272;-88
2021/01/04 06:52:53;;;;;;;;;;;;;;;4.66;77.97;97871.14;1739795;80;25085;-88
2021/01/04 06:55:39;;;;;;;;;;;;;;;4.56;78.00;97868.23;1741843;82;21958;-88
2021/01/04 06:58:25;;;;;;;;;;;;;;;4.46;78.03;97871.41;1745040;81;26374;-87
2021/01/04 07:01:14;;;;;;;;;;;;;;;4.37;78.03;97873.18;1739001;82;24629;-88
2021/01/04 07:04:00;;;;;;;;;;;;;;;4.50;78.01;97876.34;1766304;80;20357;-88
2021/01/04 07:06:48;;;;;;;;;;;;;;;4.59;78.03;97879.71;1763576;80;25233;-88
2021/01/04 07:09:34;;;;;;;;;;;;;;;4.55;78.02;97891.17;1766528;79;23023;-88
2021/01/04 07:12:21;;;;;;;;;;;;;;;4.55;78.04;97891.63;1741529;82;26247;-88
2021/01/04 07:15:06;;;;;;;;;;;;;;;4.51;78.08;97887.53;1740349;82;24563;-88
2021/01/04 07:17:52;;;;;;;;;;;;;;;4.30;78.11;97885.65;1740613;82;20557;-88
2021/01/04 07:20:38;;;;;;;;;;;;;;;4.19;78.09;97887.97;1756731;81;25337;-88
2021/01/04 07:23:24;;;;;;;;;;;;;;;4.34;78.02;97892.78;1703208;81;22670;-88
2021/01/04 07:26:11;;;;;;;;;;;;;;;4.41;78.02;97894.14;1766211;79;25521;-88
2021/01/04 07:28:59;;;;;;;;;;;;;;;4.34;78.04;97903.98;1767080;80;24627;-88
2021/01/04 07:31:44;;;;;;;;;;;;;;;4.35;78.04;97900.94;1767322;80;20265;-88
2021/01/04 07:34:30;;;;;;;;;;;;;;;4.28;78.05;97908.65;1748113;81;25102;-88
2021/01/04 07:37:16;;;;;;;;;;;;;;;4.29;78.05;97918.09;1739711;81;22207;-88
2021/01/04 07:40:02;;;;;;;;;;;;;;;4.43;78.02;97920.78;1755813;81;26932;-88
2021/01/04 07:42:48;;;;;;;;;;;;;;;4.52;78.00;97913.37;1742302;81;24624;-88
2021/01/04 07:45:34;;;;;;;;;;;;;;;4.48;78.02;97916.19;1765467;79;20264;-88
2021/01/04 07:48:20;;;;;;;;;;;;;;;4.43;78.04;97919.48;1754996;80;25962;-87
2021/01/04 07:51:08;;;;;;;;;;;;;;;4.39;78.03;97922.70;1765302;81;22133;-89
2021/01/04 07:53:54;;;;;;;;;;;;;;;4.35;78.00;97924.25;1718635;81;26102;-89
2021/01/04 07:56:44;;;;;;;;;;;;;;;4.30;77.98;97922.37;1713410;83;24638;-90
2021/01/04 07:59:32;;;;;;;;;;;;;;;4.38;77.94;97919.73;1744787;81;20332;-90
2021/01/04 08:02:18;;;;;;;;;;;;;;;4.43;77.92;97922.08;1708917;83;25999;-89
2021/01/04 08:05:04;;;;;;;;;;;;;;;4.44;77.91;97927.19;1715024;83;22293;-89
2021/01/04 08:07:52;;;;;;;;;;;;;;;4.29;77.95;97919.39;1716067;83;26176;-89
2021/01/04 08:10:39;;;;;;;;;;;;;;;4.15;77.97;97927.87;1714967;82;24679;-90
2021/01/04 08:13:25;;;;;;;;;;;;;;;3.94;77.99;97930.28;1717573;82;20268;-90
2021/01/04 08:16:11;;;;;;;;;;;;;;;3.74;77.96;97928.26;1716867;83;25191;-90
2021/01/04 08:19:00;;;;;;;;;;;;;;;3.61;77.94;97925.05;1719049;82;22071;-89
2021/01/04 08:21:46;;;;;;;;;;;;;;;3.44;77.94;97927.19;1716667;83;28464;-89
2021/01/04 08:24:26;;;;;;;;;;;;;;;3.32;77.92;97917.47;1717090;83;25649;-90
2021/01/04 08:27:12;;;;;;;;;;;;;;;3.34;77.89;97913.88;1687434;83;20291;-89
2021/01/04 08:29:59;;;;;;;;;;;;;;;3.45;77.87;97910.76;1715679;83;25135;-89
2021/01/04 08:32:45;;;;;;;;;;;;;;;3.65;77.87;97913.21;1717603;82;22118;-89
2021/01/04 08:35:27;;;;;;;;;;;;;;;3.72;77.92;97913.25;1690705;82;26132;-89
2021/01/04 08:38:01;;;;;;;;;;;;;;;3.78;77.99;97925.89;1722294;82;24679;-89
2021/01/04 08:40:46;;;;;;;;;;;;;;;3.99;78.02;97917.48;1717696;83;20357;-89
2021/01/04 08:43:33;;;;;;;;;;;;;;;4.23;78.06;97924.44;1696961;83;25178;-89
2021/01/04 08:46:19;;;;;;;;;;;;;;;4.46;78.11;97925.36;1715090;82;22094;-89
2021/01/04 08:49:05;;;;;;;;;;;;;;;4.55;78.18;97923.56;1721827;82;26105;-89
2021/01/04 08:51:51;;;;;;;;;;;;;;;4.63;78.24;97940.84;1718080;82;24623;-88
2021/01/04 08:54:37;;;;;;;;;;;;;;;4.67;78.32;97933.73;1738785;80;20265;-89
2021/01/04 08:57:23;;;;;;;;;;;;;;;4.74;78.36;97932.48;1745938;80;25211;-89
2021/01/04 09:00:09;;;;;;;;;;;;;;;4.82;78.36;97936.77;1733927;81;22108;-89
2021/01/04 09:02:55;;;;;;;;;;;;;;;4.88;78.38;97933.84;1751864;81;26115;-89
2021/01/04 09:05:41;;;;;;;;;;;;;;;4.93;78.40;97937.02;1753970;81;25598;-89
2021/01/04 09:08:27;;;;;;;;;;;;;;;4.98;78.42;97935.01;1753760;81;20284;-90
2021/01/04 09:11:13;;;;;;;;;;;;;;;5.04;78.41;97935.13;1754184;81;25122;-89
2021/01/04 09:14:02;;;;;;;;;;;;;;;5.09;78.44;97934.87;1775753;79;23035;-88
2021/01/04 09:16:48;;;;;;;;;;;;;;;5.20;78.47;97936.41;1775808;80;26262;-89
2021/01/04 09:19:35;;;;;;;;;;;;;;;5.24;78.50;97925.77;1735363;81;24582;-89
2021/01/04 09:22:21;;;;;;;;;;;;;;;5.23;78.54;97924.12;1765543;80;20538;-89
2021/01/04 09:25:07;;;;;;;;;;;;;;;5.11;78.58;97929.15;1763553;80;25212;-89
2021/01/04 09:27:55;;;;;;;;;;;;;;;5.00;78.57;97929.75;1772010;79;22128;-89
2021/01/04 09:30:41;;;;;;;;;;;;;;;4.96;78.57;97933.44;1777947;79;26148;-90
2021/01/04 09:33:27;;;;;;;;;;;;;;;5.10;78.54;97924.88;1752553;80;25670;-89
2021/01/04 09:36:16;;;;;;;;;;;;;;;5.21;78.53;97923.36;1751152;81;20547;-89
2021/01/04 09:39:04;;;;;;;;;;;;;;;5.34;78.54;97920.91;1772983;80;25278;-90
2021/01/04 09:41:52;;;;;;;;;;;;;;;5.35;78.58;97924.70;1776219;80;22169;-90
2021/01/04 09:44:38;;;;;;;;;;;;;;;5.35;78.63;97926.45;1755888;80;26965;-89
2021/01/04 09:47:24;;;;;;;;;;;;;;;5.30;78.63;97922.83;1764092;80;24820;-89
2021/01/04 09:50:11;;;;;;;;;;;;;;;5.23;78.67;97921.98;1759400;81;20356;-90
2021/01/04 09:53:01;;;;;;;;;;;;;;;5.28;78.66;97920.80;1763049;81;26123;-89
2021/01/04 09:55:50;;;;;;;;;;;;;;;5.33;78.68;97919.23;1718086;82;22403;-89
2021/01/04 09:58:36;;;;;;;;;;;;;;;5.23;78.68;97912.91;1726888;81;26096;-90
2021/01/04 10:01:23;;;;;;;;;;;;;;;5.14;78.71;97914.23;1724883;81;24601;-88
2021/01/04 10:04:15;;;;;;;;;;;;;;;5.25;78.69;97913.63;1732914;81;20364;-89
2021/01/04 10:07:03;;;;;;;;;;;;;;;5.34;78.69;97911.38;1725506;81;25128;-88
2021/01/04 10:09:48;;;;;;;;;;;;;;;5.27;78.71;97909.20;1721286;81;21947;-88
2021/01/04 10:12:34;;;;;;;;;;;;;;;5.23;78.76;97907.72;1732078;81;26063;-90
2021/01/04 10:15:21;;;;;;;;;;;;;;;5.23;78.77;97900.77;1727163;81;24875;-89
2021/01/04 10:18:06;;;;;;;;;;;;;;;5.23;78.77;97898.18;1734761;81;20186;-89
2021/01/04 10:20:52;;;;;;;;;;;;;;;5.23;78.78;97889.10;1718030;81;25129;-90
2021/01/04 10:23:39;;;;;;;;;;;;;;;5.22;78.81;97889.17;1721965;81;22216;-89
2021/01/04 10:26:30;;;;;;;;;;;;;;;5.19;78.84;97892.77;1717649;81;25443;-89
2021/01/04 10:29:16;;;;;;;;;;;;;;;5.19;78.85;97894.06;1726226;82;24610;-89
2021/01/04 10:32:03;;;;;;;;;;;;;;;5.24;78.87;97895.09;1720359;83;20277;-90
2021/01/04 10:34:49;;;;;;;;;;;;;;;5.25;78.89;97892.88;1720507;82;25264;-89
2021/01/04 10:37:23;;;;;;;;;;;;;;;5.28;78.92;97889.67;1725513;83;22011;-89
2021/01/04 10:40:09;;;;;;;;;;;;;;;5.37;78.94;97890.42;1725893;83;26107;-89
2021/01/04 10:42:55;;;;;;;;;;;;;;;5.41;78.98;97884.59;1719814;82;24708;-89
2021/01/04 10:45:41;;;;;;;;;;;;;;;5.45;79.03;97890.80;1724994;83;20373;-89
2021/01/04 10:48:27;;;;;;;;;;;;;;;5.57;79.03;97881.47;1725918;83;25112;-89
2021/01/04 10:51:13;;;;;;;;;;;;;;;5.78;79.05;97883.30;1726009;82;21922;-89
2021/01/04 10:53:59;;;;;;;;;;;;;;;5.92;79.08;97880.73;1735676;80;26133;-89
2021/01/04 10:56:45;;;;;;;;;;;;;;;6.05;79.12;97882.97;1755507;80;25568;-89
2021/01/04 10:59:32;;;;;;;;;;;;;;;6.16;79.18;97888.81;1753126;81;20475;-89
2021/01/04 11:02:20;;;;;;;;;;;;;;;6.18;79.20;97886.94;1755397;80;26033;-89
2021/01/04 11:05:06;;;;;;;;;;;;;;;6.11;79.23;97885.17;1763822;80;22170;-88
2021/01/04 11:07:52;;;;;;;;;;;;;;;6.12;79.24;97876.92;1755303;80;26067;-91
2021/01/04 11:10:38;;;;;;;;;;;;;;;6.13;79.23;97883.33;1769268;80;24752;-90
2021/01/04 11:13:25;;;;;;;;;;;;;;;6.11;79.22;97876.08;1768767;80;20325;-90
2021/01/04 11:16:11;;;;;;;;;;;;;;;6.13;79.20;97876.00;1744162;80;25245;-90
2021/01/04 11:19:03;;;;;;;;;;;;;;;6.15;79.18;97874.98;1752597;81;22098;-90
2021/01/04 11:21:48;;;;;;;;;;;;;;;6.05;79.17;97876.48;1748471;81;26152;-89
2021/01/04 11:24:34;;;;;;;;;;;;;;;6.10;79.12;97876.20;1751157;81;25497;-91
2021/01/04 11:27:20;;;;;;;;;;;;;;;6.10;79.12;97874.44;1750573;81;20566;-91
2021/01/04 11:30:07;;;;;;;;;;;;;;;6.23;79.08;97875.34;1745379;81;25133;-89
2021/01/04 11:32:53;;;;;;;;;;;;;;;6.37;79.07;97871.07;1750626;81;22415;-91
2021/01/04 11:35:39;;;;;;;;;;;;;;;6.33;79.10;97870.41;1748970;81;26245;-90
2021/01/04 11:38:29;;;;;;;;;;;;;;;6.20;79.13;97865.15;1765037;79;24690;-89
2021/01/04 11:41:15;;;;;;;;;;;;;;;6.14;79.12;97866.81;1776079;79;20273;-89
2021/01/04 11:44:01;;;;;;;;;;;;;;;6.21;79.08;97861.63;1768725;80;25185;-89
2021/01/04 11:46:47;;;;;;;;;;;;;;;6.33;79.04;97864.41;1768576;80;20921;-89
2021/01/04 11:49:37;;;;;;;;;;;;;;;6.40;79.05;97860.47;1764673;79;26134;-89
2021/01/04 11:52:23;;;;;;;;;;;;;;;6.46;79.06;97857.03;1746575;82;24671;-90
2021/01/04 11:55:10;;;;;;;;;;;;;;;6.57;79.07;97860.25;1751405;80;20557;-90
2021/01/04 11:57:57;;;;;;;;;;;;;;;6.64;79.07;97859.78;1755342;80;25135;-89
2021/01/04 12:00:43;;;;;;;;;;;;;;;6.75;79.06;97863.00;1754704;80;22321;-90
2021/01/04 12:03:30;;;;;;;;;;;;;;;6.82;79.05;97853.86;1751957;81;26271;-90
2021/01/04 12:06:16;;;;;;;;;;;;;;;6.85;79.05;97850.24;1754419;80;24658;-90
2021/01/04 12:09:02;;;;;;;;;;;;;;;6.83;79.05;97848.20;1753598;81;20503;-90
2021/01/04 12:11:49;;;;;;;;;;;;;;;6.83;79.03;97847.73;1752265;81;25135;-90
2021/01/04 12:14:38;;;;;;;;;;;;;;;6.86;78.98;97853.22;1753334;81;20252;-89
2021/01/04 12:17:23;;;;;;;;;;;;;;;6.89;78.94;97848.64;1750762;81;26192;-90
2021/01/04 12:20:10;;;;;;;;;;;;;;;6.92;78.91;97851.06;1754523;80;25531;-90
2021/01/04 12:22:56;;;;;;;;;;;;;;;6.94;78.85;97849.64;1748080;80;20260;-90
2021/01/04 12:25:42;;;;;;;;;;;;;;;6.97;78.79;97848.16;1754353;81;26292;-90
2021/01/04 12:28:28;;;;;;;;;;;;;;;6.94;78.76;97847.88;1756100;80;22151;-90
2021/01/04 12:31:15;;;;;;;;;;;;;;;6.93;78.73;97849.27;1754642;81;26320;-90
2021/01/04 12:34:01;;;;;;;;;;;;;;;6.92;78.70;97848.46;1753103;80;24735;-90
2021/01/04 12:36:47;;;;;;;;;;;;;;;6.87;78.62;97841.42;1752003;81;20523;-90
2021/01/04 12:39:34;;;;;;;;;;;;;;;6.91;78.55;97848.55;1750487;81;25967;-90
2021/01/04 12:42:20;;;;;;;;;;;;;;;6.79;78.51;97840.23;1753330;80;22174;-90
2021/01/04 12:45:06;;;;;;;;;;;;;;;6.75;78.46;97841.37;1753929;81;26112;-90
2021/01/04 12:47:52;;;;;;;;;;;;;;;6.57;78.42;97834.27;1753993;81;24687;-89
2021/01/04 12:50:44;;;;;;;;;;;;;;;6.44;78.35;97835.95;1767810;81;20256;-90
2021/01/04 12:53:30;;;;;;;;;;;;;;;6.45;78.28;97835.86;1760076;81;25377;-90
2021/01/04 12:56:17;;;;;;;;;;;;;;;6.40;78.25;97837.08;1761836;79;22061;-90
2021/01/04 12:59:06;;;;;;;;;;;;;;;6.29;78.20;97838.59;1752983;81;27101;-89
2021/01/04 13:01:52;;;;;;;;;;;;;;;6.22;78.15;97841.65;1756427;81;24628;-90
2021/01/04 13:04:38;;;;;;;;;;;;;;;6.23;78.10;97842.86;1757077;81;20268;-90
2021/01/04 13:07:24;;;;;;;;;;;;;;;6.33;78.04;97842.31;1757069;81;25118;-90
2021/01/04 13:10:10;;;;;;;;;;;;;;;6.44;78.01;97841.98;1740380;81;22167;-90
2021/01/04 13:12:57;;;;;;;;;;;;;;;6.42;78.00;97849.53;1752899;81;26121;-90
2021/01/04 13:15:43;;;;;;;;;;;;;;;6.30;77.98;97851.95;1754045;81;24635;-90
2021/01/04 13:18:23;;;;;;;;;;;;;;;6.16;77.99;97844.66;1750121;82;20300;-90
2021/01/04 13:21:09;;;;;;;;;;;;;;;6.11;77.94;97836.31;1756869;81;25127;-90
2021/01/04 13:23:55;;;;;;;;;;;;;;;6.13;77.91;97832.67;1757294;81;22177;-90
2021/01/04 13:26:42;;;;;;;;;;;;;;;6.27;77.86;97839.14;1756435;80;26155;-90
2021/01/04 13:29:28;;;;;;;;;;;;;;;6.34;77.83;97838.30;1754574;81;24751;-90
2021/01/04 13:32:15;;;;;;;;;;;;;;;6.32;77.85;97834.14;1751449;81;20451;-90
2021/01/04 13:35:01;;;;;;;;;;;;;;;6.33;77.83;97838.41;1756622;81;26130;-90
2021/01/04 13:37:47;;;;;;;;;;;;;;;6.40;77.83;97840.98;1753860;81;21506;-90
2021/01/04 13:40:33;;;;;;;;;;;;;;;6.54;77.81;97831.87;1755969;80;26342;-89
2021/01/04 13:43:19;;;;;;;;;;;;;;;6.66;77.79;97820.67;1754798;81;24691;-88
2021/01/04 13:46:07;;;;;;;;;;;;;;;6.74;77.77;97824.92;1755270;81;20464;-88
2021/01/04 13:48:53;;;;;;;;;;;;;;;6.71;77.76;97819.44;1759836;80;25319;-90
2021/01/04 13:51:44;;;;;;;;;;;;;;;6.76;77.73;97820.94;1755504;80;22046;-89
2021/01/04 13:54:30;;;;;;;;;;;;;;;6.79;77.69;97827.23;1757919;80;26962;-89
2021/01/04 13:57:16;;;;;;;;;;;;;;;6.79;77.65;97833.27;1761105;80;24784;-89
2021/01/04 14:00:02;;;;;;;;;;;;;;;6.83;77.62;97820.42;1725455;81;20291;-90
2021/01/04 14:02:48;;;;;;;;;;;;;;;6.87;77.56;97815.88;1731422;81;25408;-89
2021/01/04 14:05:34;;;;;;;;;;;;;;;6.85;77.56;97817.73;1753573;81;22121;-89
2021/01/04 14:08:20;;;;;;;;;;;;;;;6.86;77.53;97816.34;1754829;81;26131;-89
2021/01/04 14:11:07;;;;;;;;;;;;;;;6.87;77.47;97817.18;1754946;81;25577;-89
2021/01/04 14:13:53;;;;;;;;;;;;;;;6.86;77.43;97817.64;1747614;80;20347;-89
2021/01/04 14:16:39;;;;;;;;;;;;;;;6.86;77.38;97824.14;1764762;80;25164;-89
2021/01/04 14:19:25;;;;;;;;;;;;;;;6.81;77.35;97824.91;1771681;79;22063;-89
2021/01/04 14:22:11;;;;;;;;;;;;;;;6.71;77.32;97832.91;1752249;80;26300;-90
2021/01/04 14:25:01;;;;;;;;;;;;;;;6.72;77.30;97827.61;1752768;80;24626;-90
2021/01/04 14:27:48;;;;;;;;;;;;;;;6.72;77.27;97828.08;1755226;80;20227;-91
2021/01/04 14:30:22;;;;;;;;;;;;;;;6.61;77.25;97818.37;1753082;81;25189;-89
2021/01/04 14:33:08;;;;;;;;;;;;;;;6.55;77.23;97815.31;1759430;80;22222;-88
2021/01/04 14:35:55;;;;;;;;;;;;;;;6.51;77.20;97824.25;1746918;80;26132;-89
2021/01/04 14:38:41;;;;;;;;;;;;;;;6.52;77.17;97822.86;1769261;79;24588;-90
2021/01/04 14:41:28;;;;;;;;;;;;;;;6.51;77.13;97819.89;1757278;81;20379;-89